createdAt,value
2019-03-25T00:00:09.275Z,100771.48
2019-03-25T00:02:42.850Z,100776.20
2019-03-25T00:05:14.286Z,100767.30
2019-03-25T00:07:45.445Z,100767.89
2019-03-25T00:10:16.561Z,100765.29
2019-03-25T00:12:48.130Z,100770.58
2019-03-25T00:15:19.311Z,100759.06
2019-03-25T00:17:50.622Z,100761.02
2019-03-25T00:20:22.073Z,100762.84
2019-03-25T00:22:53.644Z,100755.55
2019-03-25T00:25:25.040Z,100753.80
2019-03-25T00:27:56.187Z,100749.16
2019-03-25T00:30:27.373Z,100754.41
2019-03-25T00:32:58.519Z,100747.31
2019-03-25T00:35:30.070Z,100747.88
2019-03-25T00:38:02.056Z,100738.93
2019-03-25T00:40:33.582Z,100732.53
2019-03-25T00:43:04.968Z,100725.28
2019-03-25T00:45:36.214Z,100729.13
2019-03-25T00:48:07.841Z,100726.48
2019-03-25T00:50:39.110Z,100727.92
2019-03-25T00:53:10.421Z,100727.39
2019-03-25T00:55:41.890Z,100725.25
2019-03-25T00:58:14.065Z,100725.41
2019-03-25T01:00:46.271Z,100723.47
2019-03-25T01:03:18.355Z,100725.72
2019-03-25T01:05:49.595Z,100733.65
2019-03-25T01:08:21.776Z,100732.05
2019-03-25T01:10:52.819Z,100734.14
2019-03-25T01:13:24.409Z,100735.52
2019-03-25T01:15:55.852Z,100735.87
2019-03-25T01:18:26.979Z,100733.82
2019-03-25T01:20:58.164Z,100734.52
2019-03-25T01:23:29.442Z,100727.91
2019-03-25T01:26:00.953Z,100731.70
2019-03-25T01:28:32.254Z,100726.97
2019-03-25T01:31:03.578Z,100725.27
2019-03-25T01:33:36.070Z,100719.36
2019-03-25T01:36:07.474Z,100719.95
2019-03-25T01:38:38.928Z,100716.88
2019-03-25T01:41:10.089Z,100714.87
2019-03-25T01:43:41.524Z,100720.72
2019-03-25T01:46:12.914Z,100719.61
2019-03-25T01:48:44.511Z,100712.09
2019-03-25T01:51:15.731Z,100713.00
2019-03-25T01:53:48.008Z,100713.68
2019-03-25T01:56:19.417Z,100718.41
2019-03-25T01:58:50.869Z,100712.48
2019-03-25T02:01:22.098Z,100710.79
2019-03-25T02:03:54.441Z,100722.23
2019-03-25T02:06:26.026Z,100719.91
2019-03-25T02:08:57.106Z,100715.16
2019-03-25T02:11:28.546Z,100713.66
2019-03-25T02:13:59.733Z,100712.28
2019-03-25T02:16:31.522Z,100706.28
2019-03-25T02:19:03.731Z,100708.52
2019-03-25T02:21:35.154Z,100705.31
2019-03-25T02:24:06.475Z,100706.64
2019-03-25T02:26:37.988Z,100706.83
2019-03-25T02:29:09.334Z,100702.27
2019-03-25T02:31:40.765Z,100703.59
2019-03-25T02:34:12.139Z,100697.86
2019-03-25T02:36:43.762Z,100693.17
2019-03-25T02:39:15.146Z,100693.95
2019-03-25T02:41:46.587Z,100691.90
2019-03-25T02:44:18.012Z,100696.98
2019-03-25T02:46:50.457Z,100704.31
2019-03-25T02:49:22.106Z,100699.15
2019-03-25T02:51:53.524Z,100708.77
2019-03-25T02:54:24.684Z,100701.82
2019-03-25T02:56:55.895Z,100709.80
2019-03-25T02:59:27.110Z,100705.77
2019-03-25T03:01:58.428Z,100702.58
2019-03-25T03:04:30.855Z,100708.70
2019-03-25T03:07:02.119Z,100710.01
2019-03-25T03:09:33.598Z,100717.17
2019-03-25T03:12:05.116Z,100713.20
2019-03-25T03:14:36.957Z,100716.40
2019-03-25T03:17:09.137Z,100706.52
2019-03-25T03:19:40.659Z,100705.56
2019-03-25T03:22:12.186Z,100705.08
2019-03-25T03:24:43.608Z,100708.86
2019-03-25T03:27:15.091Z,100719.22
2019-03-25T03:29:46.850Z,100710.53
2019-03-25T03:32:18.157Z,100708.19
2019-03-25T03:34:49.551Z,100718.64
2019-03-25T03:37:22.217Z,100720.61
2019-03-25T03:39:53.432Z,100712.61
2019-03-25T03:42:25.611Z,100728.78
2019-03-25T03:44:56.849Z,100726.52
2019-03-25T03:47:28.528Z,100720.30
2019-03-25T03:49:59.942Z,100727.84
2019-03-25T03:52:31.494Z,100721.80
2019-03-25T03:55:05.290Z,100721.44
2019-03-25T03:57:37.342Z,100732.37
2019-03-25T04:00:10.437Z,100727.86
2019-03-25T04:02:43.173Z,100725.23
2019-03-25T04:05:15.126Z,100730.31
2019-03-25T04:07:46.337Z,100731.05
2019-03-25T04:10:17.844Z,100736.52
2019-03-25T04:12:49.017Z,100729.37
2019-03-25T04:15:29.647Z,100728.05
2019-03-25T04:18:01.915Z,100734.47
2019-03-25T04:20:32.997Z,100728.06
2019-03-25T04:23:04.811Z,100723.19
2019-03-25T04:25:37.373Z,100719.52
2019-03-25T04:28:10.140Z,100721.97
2019-03-25T04:30:41.610Z,100721.00
2019-03-25T04:33:13.081Z,100726.36
2019-03-25T04:35:44.501Z,100730.52
2019-03-25T04:38:15.977Z,100726.72
2019-03-25T04:40:46.986Z,100721.06
2019-03-25T04:43:18.561Z,100712.83
2019-03-25T04:45:49.821Z,100711.90
2019-03-25T04:48:21.014Z,100710.56
2019-03-25T04:50:52.378Z,100707.14
2019-03-25T04:53:24.179Z,100705.59
2019-03-25T04:55:55.584Z,100706.42
2019-03-25T04:58:27.224Z,100702.57
2019-03-25T05:00:58.835Z,100708.72
2019-03-25T05:03:30.327Z,100662.61
2019-03-25T05:06:03.482Z,100707.21
2019-03-25T05:08:35.862Z,100707.98
2019-03-25T05:11:08.286Z,100713.50
2019-03-25T05:13:39.549Z,100709.38
2019-03-25T05:16:10.700Z,100711.77
2019-03-25T05:18:42.598Z,100710.53
2019-03-25T05:21:14.235Z,100698.87
2019-03-25T05:23:45.782Z,100703.27
2019-03-25T05:26:17.645Z,100705.59
2019-03-25T05:28:49.422Z,100702.39
2019-03-25T05:31:23.184Z,100695.55
2019-03-25T05:33:54.713Z,100696.91
2019-03-25T05:36:26.239Z,100688.75
2019-03-25T05:38:57.729Z,100682.84
2019-03-25T05:41:29.176Z,100687.80
2019-03-25T05:44:00.626Z,100686.46
2019-03-25T05:46:32.041Z,100690.23
2019-03-25T05:49:03.372Z,100693.81
2019-03-25T05:51:34.981Z,100684.39
2019-03-25T05:54:06.800Z,100690.67
2019-03-25T05:56:38.261Z,100694.74
2019-03-25T05:59:10.444Z,100689.77
2019-03-25T06:01:44.097Z,100695.28
2019-03-25T06:04:14.896Z,100693.84
2019-03-25T06:06:47.275Z,100692.60
2019-03-25T06:09:19.818Z,100698.97
2019-03-25T06:11:51.720Z,100695.41
2019-03-25T06:14:23.140Z,100695.32
2019-03-25T06:16:54.388Z,100690.11
2019-03-25T06:19:25.831Z,100694.87
2019-03-25T06:21:57.237Z,100684.87
2019-03-25T06:24:28.967Z,100693.35
2019-03-25T06:27:00.166Z,100691.85
2019-03-25T06:29:32.095Z,100688.33
2019-03-25T06:32:04.732Z,100684.72
2019-03-25T06:34:35.993Z,100684.59
2019-03-25T06:37:07.470Z,100680.16
2019-03-25T06:39:38.878Z,100680.87
2019-03-25T06:42:10.961Z,100681.50
2019-03-25T06:44:42.294Z,100685.77
2019-03-25T06:47:13.599Z,100685.70
2019-03-25T06:49:44.808Z,100677.42
2019-03-25T06:52:17.048Z,100682.27
2019-03-25T06:54:49.075Z,100682.59
2019-03-25T06:57:25.817Z,100679.92
2019-03-25T06:59:54.907Z,100678.11
2019-03-25T07:02:44.821Z,100677.14
2019-03-25T07:05:16.547Z,100674.06
2019-03-25T07:07:48.062Z,100676.34
2019-03-25T07:10:30.521Z,100668.79
2019-03-25T07:13:02.792Z,100663.00
2019-03-25T07:15:34.168Z,100665.55
2019-03-25T07:18:05.577Z,100662.59
2019-03-25T07:20:36.886Z,100666.89
2019-03-25T07:23:08.155Z,100659.76
2019-03-25T07:25:40.702Z,100667.48
2019-03-25T07:28:11.790Z,100655.20
2019-03-25T07:30:43.348Z,100618.29
2019-03-25T07:33:14.594Z,100655.13
2019-03-25T07:35:46.656Z,100656.56
2019-03-25T07:38:18.211Z,100656.12
2019-03-25T07:40:51.462Z,100654.72
2019-03-25T07:43:25.164Z,100653.40
2019-03-25T07:45:57.308Z,100645.12
2019-03-25T07:48:28.497Z,100637.28
2019-03-25T07:50:59.812Z,100626.60
2019-03-25T07:53:31.914Z,100631.83
2019-03-25T07:56:03.434Z,100624.11
2019-03-25T07:58:36.884Z,100617.23
2019-03-25T08:01:08.420Z,100618.73
2019-03-25T08:03:41.846Z,100620.97
2019-03-25T08:06:13.443Z,100613.83
2019-03-25T08:08:45.585Z,100617.01
2019-03-25T08:11:17.910Z,100622.36
2019-03-25T08:13:52.857Z,100618.28
2019-03-25T08:16:25.260Z,100616.78
2019-03-25T08:18:57.543Z,100615.94
2019-03-25T08:21:29.723Z,100623.55
2019-03-25T08:24:01.107Z,100626.87
2019-03-25T08:26:32.382Z,100634.56
2019-03-25T08:29:03.629Z,100628.02
2019-03-25T08:31:34.916Z,100637.13
2019-03-25T08:34:06.193Z,100636.42
2019-03-25T08:36:37.495Z,100645.95
2019-03-25T08:39:08.652Z,100641.30
2019-03-25T08:41:39.937Z,100640.32
2019-03-25T08:44:12.248Z,100659.12
2019-03-25T08:46:43.355Z,100653.40
2019-03-25T08:49:15.131Z,100653.39
2019-03-25T08:51:52.110Z,100650.33
2019-03-25T08:54:27.864Z,100647.91
2019-03-25T08:56:59.408Z,100645.61
2019-03-25T08:59:31.732Z,100643.20
2019-03-25T09:02:03.931Z,100639.54
2019-03-25T09:04:35.304Z,100638.68
2019-03-25T09:07:08.696Z,100638.75
2019-03-25T09:09:41.668Z,100640.43
2019-03-25T09:12:14.017Z,100629.07
2019-03-25T09:14:54.657Z,100625.12
2019-03-25T09:17:28.310Z,100629.86
2019-03-25T09:20:01.545Z,100621.66
2019-03-25T09:22:34.956Z,100624.17
2019-03-25T09:25:07.555Z,100627.42
2019-03-25T09:27:39.997Z,100630.05
2019-03-25T09:30:11.695Z,100622.09
2019-03-25T09:32:43.071Z,100616.45
2019-03-25T09:35:15.468Z,100610.40
2019-03-25T09:37:48.496Z,100601.32
2019-03-25T09:40:23.396Z,100603.18
2019-03-25T09:42:54.765Z,100595.30
2019-03-25T09:45:30.999Z,100591.01
2019-03-25T09:48:02.682Z,100597.91
2019-03-25T09:50:34.167Z,100592.42
2019-03-25T09:53:05.597Z,100597.16
2019-03-25T09:55:37.140Z,100590.03
2019-03-25T09:58:08.415Z,100575.84
2019-03-25T10:00:39.574Z,100570.00
2019-03-25T10:03:11.847Z,100571.86
2019-03-25T10:05:42.887Z,100574.14
2019-03-25T10:08:19.304Z,100572.96
2019-03-25T10:10:51.593Z,100573.25
2019-03-25T10:13:23.328Z,100572.97
2019-03-25T10:15:56.802Z,100577.55
2019-03-25T10:18:28.120Z,100576.92
2019-03-25T10:21:00.003Z,100574.51
2019-03-25T10:23:32.031Z,100565.91
2019-03-25T10:26:03.223Z,100573.95
2019-03-25T10:28:34.596Z,100575.75
2019-03-25T10:31:05.770Z,100545.33
2019-03-25T10:33:37.023Z,100573.02
2019-03-25T10:36:08.474Z,100563.37
2019-03-25T10:38:44.356Z,100562.29
2019-03-25T10:41:16.689Z,100555.01
2019-03-25T10:43:49.494Z,100545.11
2019-03-25T10:46:22.005Z,100545.20
2019-03-25T10:48:54.250Z,100541.34
2019-03-25T10:51:25.617Z,100530.30
2019-03-25T10:53:57.040Z,100526.09
2019-03-25T10:56:29.462Z,100523.25
2019-03-25T10:59:01.858Z,100520.11
2019-03-25T11:01:33.069Z,100513.14
2019-03-25T11:04:04.387Z,100511.47
2019-03-25T11:06:35.724Z,100509.72
2019-03-25T11:09:07.451Z,100505.98
2019-03-25T11:11:39.677Z,100507.09
2019-03-25T11:14:12.036Z,100497.69
2019-03-25T11:16:43.199Z,100483.56
2019-03-25T11:19:14.544Z,100478.45
2019-03-25T11:21:53.468Z,100468.70
2019-03-25T11:24:26.241Z,100454.27
2019-03-25T11:26:58.488Z,100457.04
2019-03-25T11:29:30.670Z,100456.81
2019-03-25T11:32:02.300Z,100446.63
2019-03-25T11:34:33.986Z,100450.94
2019-03-25T11:37:05.145Z,100452.09
2019-03-25T11:39:37.476Z,100444.00
2019-03-25T11:42:11.677Z,100441.29
2019-03-25T11:44:47.049Z,100441.20
2019-03-25T11:47:18.350Z,100439.31
2019-03-25T11:49:52.240Z,100436.67
2019-03-25T11:52:30.117Z,100429.19
2019-03-25T11:55:02.503Z,100428.03
2019-03-25T11:57:35.546Z,100428.22
2019-03-25T12:00:08.591Z,100425.29
2019-03-25T12:02:41.453Z,100424.19
2019-03-25T12:05:12.812Z,100421.47
2019-03-25T12:07:47.072Z,100410.16
2019-03-25T12:10:19.371Z,100410.83
2019-03-25T12:12:51.587Z,100417.95
2019-03-25T12:15:24.953Z,100416.08
2019-03-25T12:18:01.523Z,100411.81
2019-03-25T12:20:33.047Z,100411.52
2019-03-25T12:23:10.815Z,100401.38
2019-03-25T12:25:42.268Z,100408.21
2019-03-25T12:28:13.698Z,100411.38
2019-03-25T12:30:44.921Z,100403.64
2019-03-25T12:33:17.220Z,100401.19
2019-03-25T12:35:48.635Z,100405.73
2019-03-25T12:38:20.255Z,100398.78
2019-03-25T12:40:52.632Z,100398.86
2019-03-25T12:43:23.704Z,100401.98
2019-03-25T12:45:54.958Z,100394.20
2019-03-25T12:48:26.809Z,100384.27
2019-03-25T12:50:58.592Z,100385.48
2019-03-25T12:53:29.764Z,100382.48
2019-03-25T12:56:02.247Z,100379.08
2019-03-25T12:58:33.520Z,100380.23
2019-03-25T13:01:08.659Z,100383.52
2019-03-25T13:03:40.958Z,100379.09
2019-03-25T13:06:14.365Z,100378.38
2019-03-25T13:08:45.986Z,100376.94
2019-03-25T13:11:17.394Z,100374.08
2019-03-25T13:13:56.468Z,100356.16
2019-03-25T13:16:36.745Z,100356.03
2019-03-25T13:19:20.194Z,100349.99
2019-03-25T13:21:56.391Z,100351.78
2019-03-25T13:24:41.585Z,100351.83
2019-03-25T13:27:18.282Z,100358.56
2019-03-25T13:29:59.210Z,100352.92
2019-03-25T13:32:37.235Z,100348.41
2019-03-25T13:35:42.144Z,100353.62
2019-03-25T13:38:22.824Z,100350.25
2019-03-25T13:40:59.107Z,100356.55
2019-03-25T13:43:35.567Z,100347.12
2019-03-25T13:46:10.481Z,100350.23
2019-03-25T13:48:44.904Z,100343.08
2019-03-25T13:51:19.410Z,100338.11
2019-03-25T13:53:59.834Z,100337.17
2019-03-25T13:56:32.207Z,100349.16
2019-03-25T13:59:03.637Z,100352.76
2019-03-25T14:01:35.503Z,100346.91
2019-03-25T14:04:06.781Z,100350.17
2019-03-25T14:06:40.194Z,100354.83
2019-03-25T14:09:11.832Z,100349.22
2019-03-25T14:11:44.364Z,100351.86
2019-03-25T14:14:16.678Z,100360.86
2019-03-25T14:16:49.081Z,100354.22
2019-03-25T14:19:32.442Z,100348.70
2019-03-25T14:22:03.866Z,100351.91
2019-03-25T14:24:39.479Z,100347.75
2019-03-25T14:27:13.006Z,100330.87
2019-03-25T14:29:44.385Z,100350.75
2019-03-25T14:32:15.707Z,100359.13
2019-03-25T14:34:47.153Z,100345.73
2019-03-25T14:37:21.226Z,100343.08
2019-03-25T14:39:53.394Z,100343.72
2019-03-25T14:42:25.414Z,100346.05
2019-03-25T14:45:00.655Z,100348.75
2019-03-25T14:47:33.403Z,100357.80
2019-03-25T14:50:06.727Z,100347.92
2019-03-25T14:52:38.074Z,100335.87
2019-03-25T14:55:10.087Z,100331.84
2019-03-25T14:57:41.639Z,100332.69
2019-03-25T15:00:13.257Z,100333.51
2019-03-25T15:02:45.065Z,100332.28
2019-03-25T15:05:16.443Z,100330.94
2019-03-25T15:07:48.775Z,100325.23
2019-03-25T15:10:21.533Z,100321.89
2019-03-25T15:12:57.023Z,100316.52
2019-03-25T15:15:31.333Z,100314.16
2019-03-25T15:18:03.708Z,100320.48
2019-03-25T15:20:34.981Z,100321.98
2019-03-25T15:23:08.527Z,100323.80
2019-03-25T15:25:44.386Z,100327.14
2019-03-25T15:28:15.714Z,100332.81
2019-03-25T15:30:47.286Z,100332.12
2019-03-25T15:33:20.694Z,100333.78
2019-03-25T15:35:52.911Z,100328.06
2019-03-25T15:38:25.549Z,100324.69
2019-03-25T15:40:57.071Z,100324.86
2019-03-25T15:43:28.761Z,100321.84
2019-03-25T15:46:00.662Z,100327.83
2019-03-25T15:48:32.870Z,100321.84
2019-03-25T15:51:04.063Z,100322.30
2019-03-25T15:53:35.466Z,100322.02
2019-03-25T15:56:08.701Z,100319.98
2019-03-25T15:58:40.128Z,100317.59
2019-03-25T16:01:12.964Z,100319.60
2019-03-25T16:03:44.138Z,100314.22
2019-03-25T16:06:15.742Z,100303.59
2019-03-25T16:08:46.980Z,100303.57
2019-03-25T16:11:18.763Z,100304.20
2019-03-25T16:13:49.877Z,100310.89
2019-03-25T16:16:22.023Z,100307.55
2019-03-25T16:18:53.185Z,100310.22
2019-03-25T16:21:24.587Z,100309.16
2019-03-25T16:23:55.761Z,100307.48
2019-03-25T16:26:26.974Z,100310.50
2019-03-25T16:28:58.419Z,100317.84
2019-03-25T16:31:29.553Z,100313.49
2019-03-25T16:34:00.789Z,100315.50
2019-03-25T16:36:32.107Z,100311.48
2019-03-25T16:39:04.303Z,100311.84
2019-03-25T16:41:37.089Z,100308.47
2019-03-25T16:44:08.384Z,100315.00
2019-03-25T16:46:39.612Z,100316.97
2019-03-25T16:49:11.840Z,100310.47
2019-03-25T16:51:43.062Z,100313.28
2019-03-25T16:54:15.268Z,100311.13
2019-03-25T16:56:47.126Z,100321.43
2019-03-25T16:59:18.441Z,100326.10
2019-03-25T17:01:49.939Z,100320.72
2019-03-25T17:04:21.405Z,100320.01
2019-03-25T17:06:53.604Z,100329.80
2019-03-25T17:09:26.154Z,100334.60
2019-03-25T17:11:57.834Z,100335.89
2019-03-25T17:14:29.085Z,100353.91
2019-03-25T17:17:02.470Z,100355.77
2019-03-25T17:19:33.728Z,100364.15
2019-03-25T17:22:06.038Z,100368.47
2019-03-25T17:24:37.601Z,100360.02
2019-03-25T17:27:08.760Z,100373.84
2019-03-25T17:29:41.197Z,100371.88
2019-03-25T17:32:13.013Z,100373.52
2019-03-25T17:34:44.278Z,100387.66
2019-03-25T17:37:17.393Z,100386.46
2019-03-25T17:39:48.881Z,100389.34
2019-03-25T17:42:20.029Z,100400.09
2019-03-25T17:44:51.204Z,100391.27
2019-03-25T17:47:22.365Z,100390.52
2019-03-25T17:49:55.301Z,100394.56
2019-03-25T17:52:28.190Z,100395.17
2019-03-25T17:54:59.677Z,100393.84
2019-03-25T17:57:31.191Z,100393.52
2019-03-25T18:00:03.047Z,100387.63
2019-03-25T18:02:39.531Z,100383.08
2019-03-25T18:05:11.523Z,100374.38
2019-03-25T18:07:42.870Z,100368.98
2019-03-25T18:10:16.293Z,100368.22
2019-03-25T18:12:47.676Z,100356.23
2019-03-25T18:15:19.235Z,100358.34
2019-03-25T18:17:51.711Z,100349.38
2019-03-25T18:20:23.036Z,100351.48
2019-03-25T18:22:54.231Z,100357.52
2019-03-25T18:25:25.589Z,100354.09
2019-03-25T18:27:56.877Z,100351.44
2019-03-25T18:30:35.822Z,100360.19
2019-03-25T18:33:07.083Z,100356.47
2019-03-25T18:35:38.307Z,100363.45
2019-03-25T18:38:10.477Z,100366.88
2019-03-25T18:40:41.761Z,100353.81
2019-03-25T18:43:13.376Z,100349.75
2019-03-25T18:45:47.941Z,100350.15
2019-03-25T18:48:19.372Z,100337.48
2019-03-25T18:50:50.940Z,100339.38
2019-03-25T18:53:22.195Z,100342.69
2019-03-25T18:55:55.261Z,100340.23
2019-03-25T18:58:27.121Z,100337.57
2019-03-25T19:01:00.919Z,100337.70
2019-03-25T19:03:35.360Z,100329.72
2019-03-25T19:06:06.851Z,100338.83
2019-03-25T19:08:45.191Z,100339.80
2019-03-25T19:11:17.846Z,100335.31
2019-03-25T19:13:49.025Z,100330.84
2019-03-25T19:16:20.171Z,100327.74
2019-03-25T19:18:52.708Z,100332.25
2019-03-25T19:21:24.130Z,100336.16
2019-03-25T19:23:55.513Z,100335.47
2019-03-25T19:26:26.716Z,100327.22
2019-03-25T19:29:01.405Z,100330.16
2019-03-25T19:31:34.974Z,100324.19
2019-03-25T19:34:06.503Z,100326.16
2019-03-25T19:36:38.010Z,100329.59
2019-03-25T19:39:09.105Z,100324.31
2019-03-25T19:41:40.426Z,100324.11
2019-03-25T19:44:11.911Z,100323.27
2019-03-25T19:46:43.468Z,100321.17
2019-03-25T19:49:15.177Z,100318.11
2019-03-25T19:51:46.462Z,100316.30
2019-03-25T19:54:19.320Z,100313.91
2019-03-25T19:56:50.916Z,100319.28
2019-03-25T19:59:22.280Z,100315.73
2019-03-25T20:01:53.737Z,100312.10
2019-03-25T20:04:25.403Z,100316.94
2019-03-25T20:06:56.740Z,100320.08
2019-03-25T20:09:28.209Z,100318.39
2019-03-25T20:11:59.508Z,100313.76
2019-03-25T20:14:30.624Z,100331.41
2019-03-25T20:17:01.966Z,100320.00
2019-03-25T20:19:34.879Z,100331.40
2019-03-25T20:22:06.089Z,100332.81
2019-03-25T20:24:37.714Z,100330.36
2019-03-25T20:27:08.909Z,100323.58
2019-03-25T20:29:40.593Z,100331.69
2019-03-25T20:32:11.894Z,100328.17
2019-03-25T20:34:43.150Z,100319.88
2019-03-25T20:37:14.627Z,100318.46
2019-03-25T20:39:45.915Z,100325.95
2019-03-25T20:42:17.036Z,100322.25
2019-03-25T20:44:48.501Z,100316.57
2019-03-25T20:47:20.033Z,100309.28
2019-03-25T20:49:51.338Z,100299.48
2019-03-25T20:52:24.478Z,100294.25
2019-03-25T20:54:59.648Z,100296.42
2019-03-25T20:57:32.015Z,100293.07
2019-03-25T21:00:04.531Z,100302.79
2019-03-25T21:02:44.768Z,100311.61
2019-03-25T21:05:09.183Z,100296.83
2019-03-25T21:07:40.806Z,100291.52
2019-03-25T21:10:11.975Z,100294.97
2019-03-25T21:12:43.356Z,100288.44
2019-03-25T21:15:16.179Z,100290.46
2019-03-25T21:17:47.403Z,100291.74
2019-03-25T21:20:19.768Z,100283.77
2019-03-25T21:22:51.224Z,100278.65
2019-03-25T21:25:22.374Z,100276.19
2019-03-25T21:27:53.621Z,100267.52
2019-03-25T21:30:28.198Z,100265.50
2019-03-25T21:32:58.836Z,100262.48
2019-03-25T21:35:30.008Z,100267.72
2019-03-25T21:38:01.071Z,100261.36
2019-03-25T21:40:34.242Z,100256.31
2019-03-25T21:43:05.274Z,100264.65
2019-03-25T21:45:37.026Z,100265.00
2019-03-25T21:48:08.325Z,100270.11
2019-03-25T21:50:39.435Z,100274.09
2019-03-25T21:53:10.555Z,100286.66
2019-03-25T21:55:41.902Z,100296.47
2019-03-25T21:58:13.021Z,100300.58
2019-03-25T22:00:44.349Z,100295.81
2019-03-25T22:03:15.619Z,100280.78
2019-03-25T22:05:47.192Z,100290.20
2019-03-25T22:08:18.520Z,100285.64
2019-03-25T22:10:49.666Z,100288.56
2019-03-25T22:13:20.879Z,100295.06
2019-03-25T22:15:52.115Z,100287.24
2019-03-25T22:18:23.050Z,100283.11
2019-03-25T22:20:54.960Z,100283.65
2019-03-25T22:23:25.983Z,100272.33
2019-03-25T22:25:56.930Z,100279.09
2019-03-25T22:28:27.903Z,100281.54
2019-03-25T22:30:58.935Z,100277.70
2019-03-25T22:33:29.904Z,100275.17
2019-03-25T22:36:01.082Z,100279.69
2019-03-25T22:38:32.280Z,100285.97
2019-03-25T22:41:03.471Z,100293.50
2019-03-25T22:43:34.602Z,100290.84
2019-03-25T22:46:05.779Z,100293.55
2019-03-25T22:48:36.968Z,100290.53
2019-03-25T22:51:08.006Z,100281.73
2019-03-25T22:53:39.162Z,100277.74
2019-03-25T22:56:10.338Z,100275.36
2019-03-25T22:58:41.354Z,100285.38
2019-03-25T23:01:12.513Z,100285.28
2019-03-25T23:03:43.659Z,100273.23
2019-03-25T23:06:15.091Z,100288.09
2019-03-25T23:08:46.295Z,100284.53
2019-03-25T23:11:18.591Z,100281.66
2019-03-25T23:13:49.648Z,100293.23
2019-03-25T23:16:21.777Z,100288.78
2019-03-25T23:18:52.838Z,100295.45
2019-03-25T23:21:26.019Z,100295.36
2019-03-25T23:23:57.500Z,100297.91
2019-03-25T23:26:28.919Z,100290.14
2019-03-25T23:29:00.255Z,100295.70
2019-03-25T23:31:31.471Z,100309.45
2019-03-25T23:34:02.626Z,100309.41
2019-03-25T23:36:33.708Z,100308.19
2019-03-25T23:39:06.847Z,100320.12
2019-03-25T23:41:38.110Z,100313.02
2019-03-25T23:44:09.244Z,100316.47
2019-03-25T23:46:40.236Z,100324.54
2019-03-25T23:49:12.536Z,100316.73
2019-03-25T23:51:43.718Z,100319.97
2019-03-25T23:54:15.253Z,100323.11
2019-03-25T23:56:46.616Z,100319.49
2019-03-25T23:59:17.561Z,100319.28
